Diablo, WA

7:57 AM PST on November 22, 2014 (GMT -0800)
Whidbey Island Naval Air Station | Change Station
CLOSE
Current Station
Airport
Location: Whidbey Island,
Elevation: 46 ft
Nearby Weather Stations
Active Advisory: Winter Storm Watch

Elev 46 ft 48.35 °N, 122.66 °W | Updated 1 hour ago

Mostly Cloudy
Mostly Cloudy
47 °F
Feels Like 47 °F
N
6
Wind Variable Wind from ESE

Today
High -- | Low -- °F
--% Chance of Precip.
Yesterday
High -- | Low -- °F
Precip. -- in
7:23 AM 4:17 PM
New Moon, 0% visible
Pressure 29.68 in
Visibility 10.0 miles
Clouds Few 1000 ft
Mostly Cloudy 3800 ft
Overcast 8000 ft
Dew Point 43 °F
Humidity 86%
Rainfall 0.08 in
Snow Depth Not available.
UV 0 out of 12
Pollen .10 out of 12
Air Quality Not available.
Flu Activity Not available.
METAR KNUW 221456Z 11005KT 10SM FEW010 BKN038 OVC080 08/06 A2967 RMK AO2 SLP050 60008 T00830061 51015 $

More Conditions Fewer Conditions

Pressure 29.68 in
Visibility 10.0 miles
Clouds Few 1000 ft
Mostly Cloudy 3800 ft
Overcast 8000 ft
Dew Point 43 °F
Humidity 86%
Rainfall 0.08 in
Snow Depth Not available.
UV 0 out of 12
Pollen .10 out of 12
Air Quality Not available.
Flu Activity Not available.
METAR KNUW 221456Z 11005KT 10SM FEW010 BKN038 OVC080 08/06 A2967 RMK AO2 SLP050 60008 T00830061 51015 $

More Conditions Fewer Conditions

10-Day Weather Forecast

Almanac

Astronomy

Nov. 22, 2014 Rise Set
Actual Time
Civil Twilight
Nautical Twilight
Astronomical Twilight
Moon
Length of Visible Light
Length of Day
Tomorrow will be .
, % of the Moon is Illuminated

Today's Extremes

State Highs State Lows

Community

WunderPhotos

Upload Photos

1,772,837 photos uploaded!

WunderBlogs® & News

Nearby

Air Quality

  Air Quality AQ Index Pollutant
Not available.

Snow Depth

Station Depth Elevation

Earthquake Activity

City Distance Mag. Time & Date
Minimum magnitude displayed is 2.5.

Coastal Water Temperatures

Place Temperature

Nearby Weather Stations